createdAt,value
2023-09-19T00:00:24.772Z,100.00
2023-09-19T00:02:58.849Z,100.00
2023-09-19T00:05:28.887Z,100.00
2023-09-19T00:07:57.772Z,100.00
2023-09-19T00:10:28.380Z,100.00
2023-09-19T00:13:00.073Z,100.00
2023-09-19T00:15:30.074Z,100.00
2023-09-19T00:17:57.466Z,100.00
2023-09-19T00:20:25.364Z,100.00
2023-09-19T00:22:55.016Z,100.00
2023-09-19T00:25:22.003Z,100.00
2023-09-19T00:27:52.722Z,100.00
2023-09-19T00:30:22.918Z,100.00
2023-09-19T00:32:53.382Z,100.00
2023-09-19T00:35:20.406Z,100.00
2023-09-19T00:37:47.180Z,100.00
2023-09-19T00:40:14.247Z,100.00
2023-09-19T00:42:41.992Z,100.00
2023-09-19T00:45:12.216Z,100.00
2023-09-19T00:47:50.373Z,100.00
2023-09-19T00:50:22.487Z,100.00
2023-09-19T00:52:51.441Z,100.00
2023-09-19T00:55:21.735Z,100.00
2023-09-19T00:57:51.392Z,100.00
2023-09-19T01:00:22.155Z,100.00
2023-09-19T01:02:49.700Z,100.00
2023-09-19T01:05:17.247Z,100.00
2023-09-19T01:07:46.023Z,100.00
2023-09-19T01:10:15.645Z,100.00
2023-09-19T01:13:07.015Z,100.00
2023-09-19T01:15:45.918Z,100.00
2023-09-19T01:18:23.343Z,100.00
2023-09-19T01:21:02.261Z,100.00
2023-09-19T01:23:49.016Z,100.00
2023-09-19T01:26:53.437Z,100.00
2023-09-19T01:29:51.384Z,100.00
2023-09-19T01:32:23.589Z,100.00
2023-09-19T01:35:05.285Z,100.00
2023-09-19T01:37:32.751Z,100.00
2023-09-19T01:40:09.896Z,100.00
2023-09-19T01:42:37.133Z,100.00
2023-09-19T01:45:24.101Z,100.00
2023-09-19T01:47:57.781Z,100.00
2023-09-19T01:50:42.248Z,100.00
2023-09-19T01:53:17.152Z,100.00
2023-09-19T01:55:50.731Z,100.00
2023-09-19T01:58:35.277Z,100.00
2023-09-19T02:01:02.653Z,100.00
2023-09-19T02:03:30.359Z,100.00
2023-09-19T02:05:57.292Z,100.00
2023-09-19T02:08:26.953Z,100.00
2023-09-19T02:10:54.267Z,100.00
2023-09-19T02:13:22.527Z,100.00
2023-09-19T02:15:49.463Z,100.00
2023-09-19T02:18:16.242Z,100.00
2023-09-19T02:20:43.201Z,100.00
2023-09-19T02:23:11.100Z,100.00
2023-09-19T02:25:39.423Z,100.00
2023-09-19T02:28:06.855Z,100.00
2023-09-19T02:30:34.199Z,100.00
2023-09-19T02:33:04.511Z,100.00
2023-09-19T02:35:36.701Z,100.00
2023-09-19T02:38:07.809Z,100.00
2023-09-19T02:40:37.334Z,100.00
2023-09-19T02:43:04.831Z,100.00
2023-09-19T02:45:32.055Z,100.00
2023-09-19T02:47:59.525Z,100.00
2023-09-19T02:50:26.293Z,100.00
2023-09-19T02:52:53.197Z,100.00
2023-09-19T02:55:21.370Z,100.00
2023-09-19T02:57:49.868Z,100.00
2023-09-19T03:00:18.213Z,100.00
2023-09-19T03:02:47.616Z,100.00
2023-09-19T03:05:14.954Z,100.00
2023-09-19T03:07:44.387Z,100.00
2023-09-19T03:10:11.277Z,100.00
2023-09-19T03:12:38.111Z,100.00
2023-09-19T03:15:05.891Z,100.00
2023-09-19T03:17:34.115Z,100.00
2023-09-19T03:20:00.983Z,100.00
2023-09-19T03:22:28.674Z,100.00
2023-09-19T03:24:55.541Z,100.00
2023-09-19T03:27:22.408Z,100.00
2023-09-19T03:29:49.225Z,100.00
2023-09-19T03:32:16.573Z,100.00
2023-09-19T03:34:44.615Z,100.00
2023-09-19T03:37:11.682Z,100.00
2023-09-19T03:39:38.537Z,100.00
2023-09-19T03:42:05.486Z,100.00
2023-09-19T03:44:32.195Z,100.00
2023-09-19T03:46:59.267Z,100.00
2023-09-19T03:49:26.087Z,100.00
2023-09-19T03:51:53.135Z,100.00
2023-09-19T03:54:20.900Z,100.00
2023-09-19T03:56:47.654Z,100.00
2023-09-19T03:59:15.029Z,100.00
2023-09-19T04:01:42.669Z,100.00
2023-09-19T04:04:09.732Z,100.00
2023-09-19T04:06:36.681Z,100.00
2023-09-19T04:09:04.849Z,100.00
2023-09-19T04:11:32.613Z,100.00
2023-09-19T04:13:59.547Z,100.00
2023-09-19T04:16:26.695Z,100.00
2023-09-19T04:18:53.487Z,100.00
2023-09-19T04:21:20.493Z,100.00
2023-09-19T04:23:47.366Z,100.00
2023-09-19T04:26:14.081Z,100.00
2023-09-19T04:28:41.817Z,100.00
2023-09-19T04:31:09.526Z,100.00
2023-09-19T04:33:36.609Z,100.00
2023-09-19T04:36:14.736Z,100.00
2023-09-19T04:38:51.704Z,100.00
2023-09-19T04:41:18.455Z,100.00
2023-09-19T04:43:45.192Z,100.00
2023-09-19T04:46:12.113Z,100.00
2023-09-19T04:48:39.393Z,100.00
2023-09-19T04:51:06.558Z,100.00
2023-09-19T04:53:33.359Z,100.00
2023-09-19T04:56:00.015Z,100.00
2023-09-19T04:58:26.992Z,100.00
2023-09-19T05:00:53.874Z,100.00
2023-09-19T05:03:21.528Z,100.00
2023-09-19T05:05:48.317Z,100.00
2023-09-19T05:08:16.015Z,100.00
2023-09-19T05:10:42.913Z,100.00
2023-09-19T05:13:09.749Z,100.00
2023-09-19T05:15:36.983Z,100.00
2023-09-19T05:18:04.786Z,100.00
2023-09-19T05:20:33.955Z,100.00
2023-09-19T05:23:06.945Z,100.00
2023-09-19T05:25:34.272Z,100.00
2023-09-19T05:28:05.182Z,100.00
2023-09-19T05:30:32.037Z,100.00
2023-09-19T05:32:59.343Z,100.00
2023-09-19T05:35:27.686Z,100.00
2023-09-19T05:37:56.105Z,100.00
2023-09-19T05:40:23.343Z,100.00
2023-09-19T05:42:51.883Z,100.00
2023-09-19T05:45:23.725Z,100.00
2023-09-19T05:47:51.482Z,100.00
2023-09-19T05:50:19.815Z,100.00
2023-09-19T05:52:54.137Z,100.00
2023-09-19T05:55:22.224Z,100.00
2023-09-19T05:57:53.016Z,100.00
2023-09-19T06:00:25.085Z,100.00
2023-09-19T06:02:56.052Z,100.00
2023-09-19T06:05:23.229Z,100.00
2023-09-19T06:07:50.135Z,100.00
2023-09-19T06:10:18.778Z,100.00
2023-09-19T06:12:45.710Z,100.00
2023-09-19T06:15:24.204Z,100.00
2023-09-19T06:17:52.062Z,100.00
2023-09-19T06:20:19.225Z,100.00
2023-09-19T06:22:46.986Z,100.00
2023-09-19T06:25:21.172Z,100.00
2023-09-19T06:27:56.209Z,100.00
2023-09-19T06:30:27.254Z,100.00
2023-09-19T06:32:58.309Z,100.00
2023-09-19T06:35:27.500Z,100.00
2023-09-19T06:37:54.395Z,100.00
2023-09-19T06:40:21.350Z,100.00
2023-09-19T06:42:50.553Z,100.00
2023-09-19T06:45:20.582Z,100.00
2023-09-19T06:47:51.110Z,100.00
2023-09-19T06:50:24.335Z,100.00
2023-09-19T06:52:53.256Z,100.00
2023-09-19T06:55:21.657Z,100.00
2023-09-19T06:57:49.403Z,100.00
2023-09-19T07:00:17.261Z,100.00
2023-09-19T07:02:44.110Z,100.00
2023-09-19T07:05:11.118Z,100.00
2023-09-19T07:07:38.182Z,100.00
2023-09-19T07:10:11.498Z,100.00
2023-09-19T07:12:38.222Z,100.00
2023-09-19T07:15:07.277Z,100.00
2023-09-19T07:17:34.600Z,100.00
2023-09-19T07:20:01.629Z,100.00
2023-09-19T07:22:28.676Z,100.00
2023-09-19T07:24:56.168Z,100.00
2023-09-19T07:27:22.974Z,100.00
2023-09-19T07:29:51.099Z,100.00
2023-09-19T07:32:19.907Z,100.00
2023-09-19T07:34:47.020Z,100.00
2023-09-19T07:37:16.054Z,100.00
2023-09-19T07:39:42.840Z,100.00
2023-09-19T07:42:09.737Z,100.00
2023-09-19T07:44:37.720Z,100.00
2023-09-19T07:47:04.671Z,100.00
2023-09-19T07:49:31.568Z,100.00
2023-09-19T07:51:58.722Z,100.00
2023-09-19T07:54:25.637Z,100.00
2023-09-19T07:56:52.360Z,100.00
2023-09-19T07:59:19.083Z,100.00
2023-09-19T08:01:45.902Z,100.00
2023-09-19T08:04:12.810Z,100.00
2023-09-19T08:06:40.664Z,100.00
2023-09-19T08:09:10.555Z,100.00
2023-09-19T08:11:37.331Z,100.00
2023-09-19T08:14:04.148Z,100.00
2023-09-19T08:16:31.105Z,100.00
2023-09-19T08:18:57.929Z,100.00
2023-09-19T08:21:25.522Z,100.00
2023-09-19T08:23:52.389Z,100.00
2023-09-19T08:26:19.194Z,100.00
2023-09-19T08:28:45.946Z,100.00
2023-09-19T08:31:15.458Z,100.00
2023-09-19T08:33:42.849Z,100.00
2023-09-19T08:36:10.804Z,100.00
2023-09-19T08:38:38.186Z,100.00
2023-09-19T08:41:09.925Z,100.00
2023-09-19T08:43:39.663Z,100.00
2023-09-19T08:46:06.641Z,100.00
2023-09-19T08:48:36.412Z,100.00
2023-09-19T08:51:16.419Z,100.00
2023-09-19T08:54:20.268Z,100.00
2023-09-19T08:56:51.694Z,100.00
2023-09-19T08:59:30.704Z,100.00
2023-09-19T09:01:58.964Z,100.00
2023-09-19T09:04:27.668Z,100.00
2023-09-19T09:06:56.156Z,100.00
2023-09-19T09:09:22.918Z,100.00
2023-09-19T09:11:52.589Z,99.54
2023-09-19T09:14:19.945Z,99.89
2023-09-19T09:16:47.168Z,99.29
2023-09-19T09:19:14.156Z,99.06
2023-09-19T09:21:40.884Z,98.51
2023-09-19T09:24:35.474Z,98.11
2023-09-19T09:27:08.550Z,97.86
2023-09-19T09:29:52.665Z,97.46
2023-09-19T09:32:30.376Z,97.43
2023-09-19T09:35:01.431Z,97.13
2023-09-19T09:37:33.014Z,96.42
2023-09-19T09:40:15.978Z,95.92
2023-09-19T09:42:42.920Z,96.17
2023-09-19T09:45:37.066Z,95.82
2023-09-19T09:48:05.347Z,95.41
2023-09-19T09:50:43.176Z,95.10
2023-09-19T09:53:33.648Z,95.22
2023-09-19T09:56:01.376Z,95.01
2023-09-19T09:58:33.160Z,95.08
2023-09-19T10:01:01.357Z,94.97
2023-09-19T10:03:51.023Z,94.09
2023-09-19T10:06:29.242Z,94.23
2023-09-19T10:09:11.746Z,93.89
2023-09-19T10:11:45.586Z,93.29
2023-09-19T10:14:13.980Z,92.70
2023-09-19T10:16:49.486Z,91.40
2023-09-19T10:19:26.262Z,90.21
2023-09-19T10:21:56.637Z,89.59
2023-09-19T10:24:24.558Z,88.88
2023-09-19T10:26:52.101Z,87.48
2023-09-19T10:29:19.251Z,86.62
2023-09-19T10:31:49.199Z,85.39
2023-09-19T10:34:16.793Z,84.13
2023-09-19T10:36:46.682Z,83.45
2023-09-19T10:39:20.921Z,82.25
2023-09-19T10:42:00.095Z,80.54
2023-09-19T10:44:27.179Z,79.05
2023-09-19T10:46:55.174Z,77.97
2023-09-19T10:49:25.964Z,76.98
2023-09-19T10:51:59.644Z,76.11
2023-09-19T10:54:30.403Z,75.75
2023-09-19T10:57:00.189Z,75.96
2023-09-19T10:59:27.108Z,75.91
2023-09-19T11:02:00.029Z,75.84
2023-09-19T11:04:37.209Z,75.65
2023-09-19T11:07:13.835Z,75.40
2023-09-19T11:09:59.124Z,75.69
2023-09-19T11:12:52.229Z,75.94
2023-09-19T11:16:04.980Z,75.32
2023-09-19T11:18:44.864Z,74.70
2023-09-19T11:21:32.244Z,74.64
2023-09-19T11:24:26.538Z,73.60
2023-09-19T11:27:11.248Z,73.60
2023-09-19T11:29:39.002Z,73.72
2023-09-19T11:32:07.294Z,73.62
2023-09-19T11:34:37.431Z,73.33
2023-09-19T11:37:30.549Z,72.87
2023-09-19T11:40:17.744Z,72.92
2023-09-19T11:42:52.503Z,71.89
2023-09-19T11:45:59.251Z,70.39
2023-09-19T11:48:29.297Z,69.83
2023-09-19T11:50:57.533Z,69.41
2023-09-19T11:53:24.433Z,68.86
2023-09-19T11:55:53.182Z,68.58
2023-09-19T11:58:21.285Z,68.12
2023-09-19T12:00:55.731Z,67.20
2023-09-19T12:03:22.999Z,66.94
2023-09-19T12:05:49.877Z,66.27
2023-09-19T12:08:18.484Z,66.63
2023-09-19T12:10:52.598Z,65.73
2023-09-19T12:13:20.287Z,65.73
2023-09-19T12:15:49.390Z,65.71
2023-09-19T12:18:32.019Z,65.85
2023-09-19T12:20:59.699Z,65.93
2023-09-19T12:23:29.266Z,64.46
2023-09-19T12:25:58.864Z,63.67
2023-09-19T12:28:33.494Z,62.35
2023-09-19T12:31:10.292Z,62.54
2023-09-19T12:33:38.321Z,62.41
2023-09-19T12:36:26.668Z,62.32
2023-09-19T12:38:59.680Z,62.54
2023-09-19T12:41:27.352Z,62.68
2023-09-19T12:43:55.691Z,62.01
2023-09-19T12:46:29.203Z,61.56
2023-09-19T12:49:21.242Z,61.72
2023-09-19T12:51:49.163Z,61.49
2023-09-19T12:54:17.262Z,61.46
2023-09-19T12:56:46.315Z,61.30
2023-09-19T12:59:16.734Z,61.28
2023-09-19T13:01:50.294Z,61.24
2023-09-19T13:04:22.263Z,61.58
2023-09-19T13:06:51.902Z,61.52
2023-09-19T13:09:21.726Z,62.13
2023-09-19T13:11:49.434Z,62.22
2023-09-19T13:14:22.265Z,62.53
2023-09-19T13:17:05.549Z,63.05
2023-09-19T13:19:59.531Z,63.34
2023-09-19T13:22:55.135Z,63.88
2023-09-19T13:25:23.364Z,63.99
2023-09-19T13:27:53.799Z,64.19
2023-09-19T13:30:21.628Z,64.24
2023-09-19T13:32:48.850Z,64.92
2023-09-19T13:35:16.702Z,64.78
2023-09-19T13:37:44.806Z,64.87
2023-09-19T13:40:13.001Z,65.75
2023-09-19T13:42:41.336Z,65.89
2023-09-19T13:45:09.283Z,66.60
2023-09-19T13:47:37.828Z,67.14
2023-09-19T13:50:05.929Z,67.07
2023-09-19T13:52:33.054Z,67.86
2023-09-19T13:55:00.709Z,68.62
2023-09-19T13:57:28.077Z,68.42
2023-09-19T13:59:56.984Z,68.68
2023-09-19T14:02:24.397Z,68.54
2023-09-19T14:04:54.836Z,68.66
2023-09-19T14:07:22.638Z,69.06
2023-09-19T14:09:49.456Z,68.66
2023-09-19T14:12:16.797Z,69.40
2023-09-19T14:14:44.039Z,69.56
2023-09-19T14:17:11.152Z,69.78
2023-09-19T14:19:40.371Z,70.09
2023-09-19T14:22:11.304Z,70.37
2023-09-19T14:24:42.435Z,70.30
2023-09-19T14:27:10.451Z,70.49
2023-09-19T14:29:41.066Z,70.35
2023-09-19T14:32:08.015Z,70.00
2023-09-19T14:34:35.011Z,70.37
2023-09-19T14:37:01.929Z,70.04
2023-09-19T14:39:31.121Z,70.39
2023-09-19T14:42:01.128Z,69.99
2023-09-19T14:44:34.657Z,69.83
2023-09-19T14:47:01.493Z,69.87
2023-09-19T14:49:30.196Z,70.27
2023-09-19T14:51:56.973Z,70.35
2023-09-19T14:54:25.332Z,70.70
2023-09-19T14:57:05.231Z,70.53
2023-09-19T14:59:33.363Z,70.37
2023-09-19T15:02:00.537Z,70.51
2023-09-19T15:04:31.668Z,70.94
2023-09-19T15:06:58.572Z,70.75
2023-09-19T15:09:27.493Z,70.70
2023-09-19T15:11:54.943Z,71.36
2023-09-19T15:14:22.522Z,70.93
2023-09-19T15:16:49.972Z,71.35
2023-09-19T15:19:17.936Z,70.75
2023-09-19T15:21:45.437Z,70.86
2023-09-19T15:24:12.211Z,71.46
2023-09-19T15:26:42.021Z,71.30
2023-09-19T15:29:09.016Z,71.02
2023-09-19T15:31:38.110Z,71.34
2023-09-19T15:34:06.256Z,71.44
2023-09-19T15:36:33.134Z,71.24
2023-09-19T15:39:08.773Z,71.04
2023-09-19T15:41:47.373Z,70.14
2023-09-19T15:44:16.712Z,70.47
2023-09-19T15:46:44.052Z,70.54
2023-09-19T15:49:11.305Z,70.18
2023-09-19T15:51:40.111Z,70.39
2023-09-19T15:54:16.087Z,69.68
2023-09-19T15:56:43.955Z,70.17
2023-09-19T15:59:11.171Z,70.52
2023-09-19T16:01:39.405Z,71.09
2023-09-19T16:04:06.752Z,71.43
2023-09-19T16:06:33.788Z,71.90
2023-09-19T16:09:00.960Z,72.04
2023-09-19T16:11:29.342Z,72.41
2023-09-19T16:13:57.206Z,73.21
2023-09-19T16:16:24.917Z,73.39
2023-09-19T16:19:00.896Z,73.64
2023-09-19T16:21:29.251Z,73.93
2023-09-19T16:23:57.704Z,74.22
2023-09-19T16:26:25.697Z,74.37
2023-09-19T16:28:57.989Z,74.28
2023-09-19T16:31:25.082Z,74.69
2023-09-19T16:33:51.890Z,74.57
2023-09-19T16:36:20.108Z,74.46
2023-09-19T16:38:49.222Z,74.92
2023-09-19T16:41:17.781Z,74.88
2023-09-19T16:43:44.899Z,74.59
2023-09-19T16:46:15.254Z,75.10
2023-09-19T16:49:02.321Z,75.17
2023-09-19T16:51:30.111Z,74.76
2023-09-19T16:53:57.384Z,74.90
2023-09-19T16:56:24.363Z,75.25
2023-09-19T16:58:53.088Z,75.19
2023-09-19T17:01:21.914Z,75.39
2023-09-19T17:03:49.864Z,75.07
2023-09-19T17:06:19.444Z,75.72
2023-09-19T17:08:46.994Z,75.75
2023-09-19T17:11:17.279Z,76.09
2023-09-19T17:13:45.531Z,76.06
2023-09-19T17:16:14.013Z,76.11
2023-09-19T17:18:44.401Z,75.83
2023-09-19T17:21:14.217Z,76.14
2023-09-19T17:23:42.236Z,75.74
2023-09-19T17:26:15.504Z,76.28
2023-09-19T17:28:43.190Z,76.01
2023-09-19T17:31:23.132Z,76.19
2023-09-19T17:33:52.235Z,76.22
2023-09-19T17:36:24.206Z,76.28
2023-09-19T17:38:54.404Z,76.46
2023-09-19T17:41:23.222Z,76.60
2023-09-19T17:43:58.314Z,76.55
2023-09-19T17:46:30.853Z,76.89
2023-09-19T17:48:59.480Z,76.98
2023-09-19T17:51:28.125Z,76.91
2023-09-19T17:53:58.515Z,77.03
2023-09-19T17:56:25.629Z,77.57
2023-09-19T17:59:00.281Z,77.75
2023-09-19T18:01:33.931Z,77.31
2023-09-19T18:04:03.713Z,77.64
2023-09-19T18:06:33.077Z,77.89
2023-09-19T18:09:03.107Z,77.67
2023-09-19T18:11:30.315Z,78.24
2023-09-19T18:13:58.880Z,77.86
2023-09-19T18:16:26.980Z,78.35
2023-09-19T18:18:54.949Z,78.46
2023-09-19T18:21:22.213Z,78.26
2023-09-19T18:23:58.536Z,78.41
2023-09-19T18:26:25.318Z,78.42
2023-09-19T18:28:52.219Z,78.67
2023-09-19T18:31:19.547Z,78.96
2023-09-19T18:33:51.580Z,79.03
2023-09-19T18:36:18.571Z,78.70
2023-09-19T18:38:46.292Z,79.25
2023-09-19T18:41:16.596Z,78.83
2023-09-19T18:43:43.937Z,78.85
2023-09-19T18:46:11.403Z,79.30
2023-09-19T18:48:39.450Z,79.09
2023-09-19T18:51:07.712Z,79.17
2023-09-19T18:53:35.479Z,79.39
2023-09-19T18:56:09.369Z,79.29
2023-09-19T18:58:36.387Z,79.64
2023-09-19T19:01:04.678Z,79.92
2023-09-19T19:03:32.022Z,79.53
2023-09-19T19:05:59.418Z,79.71
2023-09-19T19:08:26.848Z,79.42
2023-09-19T19:10:53.690Z,79.33
2023-09-19T19:13:20.483Z,79.65
2023-09-19T19:15:47.297Z,79.73
2023-09-19T19:18:14.111Z,79.85
2023-09-19T19:20:42.936Z,79.46
2023-09-19T19:23:10.996Z,79.98
2023-09-19T19:25:38.896Z,79.69
2023-09-19T19:28:06.322Z,79.41
2023-09-19T19:30:33.362Z,79.46
2023-09-19T19:33:00.138Z,79.77
2023-09-19T19:35:30.398Z,79.52
2023-09-19T19:37:57.405Z,79.67
2023-09-19T19:40:24.276Z,79.68
2023-09-19T19:42:51.574Z,79.72
2023-09-19T19:45:18.313Z,80.22
2023-09-19T19:47:45.270Z,80.00
2023-09-19T19:50:15.084Z,79.89
2023-09-19T19:52:41.820Z,80.18
2023-09-19T19:55:10.818Z,80.17
2023-09-19T19:57:38.143Z,80.61
2023-09-19T20:00:07.807Z,80.45
2023-09-19T20:02:36.793Z,80.38
2023-09-19T20:05:08.072Z,81.13
2023-09-19T20:07:35.533Z,80.85
2023-09-19T20:10:02.485Z,81.29
2023-09-19T20:12:30.017Z,81.41
2023-09-19T20:14:57.690Z,81.57
2023-09-19T20:17:25.605Z,81.50
2023-09-19T20:19:53.941Z,82.09
2023-09-19T20:22:20.796Z,82.04
2023-09-19T20:24:48.523Z,82.20
2023-09-19T20:27:15.271Z,82.15
2023-09-19T20:29:43.304Z,82.46
2023-09-19T20:32:10.690Z,82.08
2023-09-19T20:34:37.440Z,82.93
2023-09-19T20:37:06.758Z,82.96
2023-09-19T20:39:33.656Z,82.79
2023-09-19T20:42:00.474Z,83.12
2023-09-19T20:44:28.362Z,83.34
2023-09-19T20:46:56.081Z,83.28
2023-09-19T20:49:25.065Z,83.46
2023-09-19T20:51:52.157Z,83.37
2023-09-19T20:54:18.909Z,83.97
2023-09-19T20:56:45.718Z,83.70
2023-09-19T20:59:12.856Z,83.73
2023-09-19T21:01:39.823Z,83.77
2023-09-19T21:04:06.798Z,84.23
2023-09-19T21:06:33.679Z,84.44
2023-09-19T21:09:00.410Z,84.45
2023-09-19T21:11:29.331Z,84.74
2023-09-19T21:13:56.574Z,84.75
2023-09-19T21:16:23.339Z,85.11
2023-09-19T21:18:50.718Z,84.99
2023-09-19T21:21:17.623Z,85.82
2023-09-19T21:23:45.388Z,86.08
2023-09-19T21:26:12.790Z,86.64
2023-09-19T21:28:40.181Z,86.73
2023-09-19T21:31:09.764Z,87.26
2023-09-19T21:33:39.050Z,86.99
2023-09-19T21:36:10.844Z,87.58
2023-09-19T21:38:41.025Z,87.86
2023-09-19T21:41:15.288Z,87.86
2023-09-19T21:43:42.244Z,88.49
2023-09-19T21:46:09.535Z,88.63
2023-09-19T21:48:36.799Z,88.80
2023-09-19T21:51:07.214Z,89.12
2023-09-19T21:53:37.466Z,89.41
2023-09-19T21:56:06.484Z,89.61
2023-09-19T21:58:36.523Z,89.37
2023-09-19T22:01:08.378Z,89.31
2023-09-19T22:03:37.833Z,89.76
2023-09-19T22:06:13.703Z,89.72
2023-09-19T22:08:41.291Z,89.89
2023-09-19T22:11:12.151Z,89.82
2023-09-19T22:13:44.765Z,90.41
2023-09-19T22:16:16.512Z,89.87
2023-09-19T22:18:47.379Z,90.30
2023-09-19T22:21:20.192Z,90.19
2023-09-19T22:23:47.959Z,90.36
2023-09-19T22:26:20.017Z,90.17
2023-09-19T22:28:51.478Z,90.44
2023-09-19T22:31:27.737Z,90.33
2023-09-19T22:33:58.848Z,90.86
2023-09-19T22:36:37.833Z,90.63
2023-09-19T22:39:05.431Z,90.39
2023-09-19T22:41:33.768Z,90.74
2023-09-19T22:44:01.414Z,90.74
2023-09-19T22:46:29.250Z,90.99
2023-09-19T22:48:56.812Z,90.68
2023-09-19T22:51:24.579Z,90.82
2023-09-19T22:54:00.546Z,90.98
2023-09-19T22:56:29.008Z,91.35
2023-09-19T22:58:56.895Z,91.68
2023-09-19T23:01:35.868Z,92.06
2023-09-19T23:04:09.636Z,91.90
2023-09-19T23:06:37.010Z,92.09
2023-09-19T23:09:05.150Z,91.71
2023-09-19T23:11:33.689Z,91.64
2023-09-19T23:14:02.502Z,91.75
2023-09-19T23:16:29.424Z,91.70
2023-09-19T23:18:58.261Z,92.08
2023-09-19T23:21:29.807Z,92.44
2023-09-19T23:23:58.617Z,92.09
2023-09-19T23:26:28.680Z,92.58
2023-09-19T23:28:55.739Z,92.24
2023-09-19T23:31:23.594Z,92.39
2023-09-19T23:33:51.827Z,92.59
2023-09-19T23:36:18.606Z,92.39
2023-09-19T23:38:48.262Z,92.37
2023-09-19T23:41:22.472Z,92.62
2023-09-19T23:43:53.857Z,91.84
2023-09-19T23:46:22.091Z,92.17
2023-09-19T23:48:48.945Z,92.13
2023-09-19T23:51:20.967Z,92.45
2023-09-19T23:53:47.743Z,92.38
2023-09-19T23:56:16.074Z,92.35
2023-09-19T23:58:48.352Z,92.79
